Eastlake, Michigan
Current Conditions -  °F | °C
As of 3:35 PM on Friday 28 Nov 2014 (Local Time) from KMBL Reporting Station
Overcast Overcast  
Wind Chill: 16°   Ceiling: 1900
Heat Index: 25°   Visibility: 10mi
Dew Point: 19°   Wind: 8mph
Humidity: 80%   Direction: 140°SE
Pressure: 30.06"   Gusts: NA
Location:  44.24°N, 86.3°W
Report Text: KMBL 282035Z AUTO 14007KT 10SM FEW013 OVC019 M04/M07 A3006 RMK AO1
Loading
Personal Weather Stations






























Interactive Weather Map New forecast layout! Learn more

10-Day Weather Forecast

Advertisements
Track Severe Weather on mobile